sensor_id;sensor_type;location;lat;lon;timestamp;P1;durP1;ratioP1;P2;durP2;ratioP2
42294;SDS011;27947;47.556;18.718;2023-06-04T00:01:32;4.55;;;1.60;;
42294;SDS011;27947;47.556;18.718;2023-06-04T00:03:57;4.10;;;1.58;;
42294;SDS011;27947;47.556;18.718;2023-06-04T00:06:23;3.42;;;1.75;;
42294;SDS011;27947;47.556;18.718;2023-06-04T00:08:48;3.50;;;1.63;;
42294;SDS011;27947;47.556;18.718;2023-06-04T00:11:13;2.88;;;1.42;;
42294;SDS011;27947;47.556;18.718;2023-06-04T00:13:39;6.97;;;1.92;;
42294;SDS011;27947;47.556;18.718;2023-06-04T00:16:04;3.47;;;1.58;;
42294;SDS011;27947;47.556;18.718;2023-06-04T00:18:30;4.70;;;1.55;;
42294;SDS011;27947;47.556;18.718;2023-06-04T00:20:55;2.65;;;1.42;;
42294;SDS011;27947;47.556;18.718;2023-06-04T00:23:20;2.47;;;1.50;;
42294;SDS011;27947;47.556;18.718;2023-06-04T00:25:46;2.92;;;1.40;;
42294;SDS011;27947;47.556;18.718;2023-06-04T00:28:11;4.63;;;1.50;;
42294;SDS011;27947;47.556;18.718;2023-06-04T00:30:36;4.45;;;1.45;;
42294;SDS011;27947;47.556;18.718;2023-06-04T00:33:02;2.88;;;1.60;;
42294;SDS011;27947;47.556;18.718;2023-06-04T00:35:27;3.20;;;1.52;;
42294;SDS011;27947;47.556;18.718;2023-06-04T00:37:53;2.78;;;1.63;;
42294;SDS011;27947;47.556;18.718;2023-06-04T00:40:18;3.22;;;1.27;;
42294;SDS011;27947;47.556;18.718;2023-06-04T00:42:44;2.85;;;1.50;;
42294;SDS011;27947;47.556;18.718;2023-06-04T00:45:10;3.88;;;1.50;;
42294;SDS011;27947;47.556;18.718;2023-06-04T00:47:35;4.85;;;1.67;;
42294;SDS011;27947;47.556;18.718;2023-06-04T00:50:01;3.40;;;1.60;;
42294;SDS011;27947;47.556;18.718;2023-06-04T00:52:26;5.00;;;1.33;;
42294;SDS011;27947;47.556;18.718;2023-06-04T00:54:52;4.57;;;1.40;;
42294;SDS011;27947;47.556;18.718;2023-06-04T00:57:19;3.75;;;1.55;;
42294;SDS011;27947;47.556;18.718;2023-06-04T00:59:45;3.13;;;1.63;;
42294;SDS011;27947;47.556;18.718;2023-06-04T01:02:15;5.40;;;1.83;;
42294;SDS011;27947;47.556;18.718;2023-06-04T01:07:10;11.07;;;1.55;;
42294;SDS011;27947;47.556;18.718;2023-06-04T01:09:37;2.97;;;1.42;;
42294;SDS011;27947;47.556;18.718;2023-06-04T01:12:04;2.65;;;1.42;;
42294;SDS011;27947;47.556;18.718;2023-06-04T01:14:29;3.15;;;1.50;;
42294;SDS011;27947;47.556;18.718;2023-06-04T01:21:51;4.82;;;2.15;;
42294;SDS011;27947;47.556;18.718;2023-06-04T01:24:18;4.03;;;1.23;;
42294;SDS011;27947;47.556;18.718;2023-06-04T01:26:46;2.38;;;1.30;;
42294;SDS011;27947;47.556;18.718;2023-06-04T01:29:12;4.95;;;1.52;;
42294;SDS011;27947;47.556;18.718;2023-06-04T01:31:37;4.97;;;1.45;;
42294;SDS011;27947;47.556;18.718;2023-06-04T01:34:03;8.63;;;1.25;;
42294;SDS011;27947;47.556;18.718;2023-06-04T01:36:28;4.38;;;1.30;;
42294;SDS011;27947;47.556;18.718;2023-06-04T01:38:53;3.88;;;1.40;;
42294;SDS011;27947;47.556;18.718;2023-06-04T01:41:19;2.53;;;1.42;;
42294;SDS011;27947;47.556;18.718;2023-06-04T01:43:45;3.42;;;1.40;;
42294;SDS011;27947;47.556;18.718;2023-06-04T01:46:10;4.75;;;1.40;;
42294;SDS011;27947;47.556;18.718;2023-06-04T01:48:35;4.95;;;1.30;;
42294;SDS011;27947;47.556;18.718;2023-06-04T01:51:01;1.92;;;1.10;;
42294;SDS011;27947;47.556;18.718;2023-06-04T01:53:27;3.05;;;1.38;;
42294;SDS011;27947;47.556;18.718;2023-06-04T01:55:52;1.88;;;1.10;;
42294;SDS011;27947;47.556;18.718;2023-06-04T01:58:18;5.90;;;1.77;;
42294;SDS011;27947;47.556;18.718;2023-06-04T02:00:51;3.25;;;1.20;;
42294;SDS011;27947;47.556;18.718;2023-06-04T02:03:18;3.13;;;1.40;;
42294;SDS011;27947;47.556;18.718;2023-06-04T02:05:44;2.50;;;1.27;;
42294;SDS011;27947;47.556;18.718;2023-06-04T02:08:14;1.98;;;1.30;;
42294;SDS011;27947;47.556;18.718;2023-06-04T02:10:44;6.40;;;1.77;;
42294;SDS011;27947;47.556;18.718;2023-06-04T02:13:10;3.95;;;1.60;;
42294;SDS011;27947;47.556;18.718;2023-06-04T02:15:35;3.38;;;1.48;;
42294;SDS011;27947;47.556;18.718;2023-06-04T02:18:22;3.17;;;1.20;;
42294;SDS011;27947;47.556;18.718;2023-06-04T02:20:47;3.72;;;1.60;;
42294;SDS011;27947;47.556;18.718;2023-06-04T02:23:14;2.42;;;1.42;;
42294;SDS011;27947;47.556;18.718;2023-06-04T02:25:40;3.00;;;1.60;;
42294;SDS011;27947;47.556;18.718;2023-06-04T02:28:06;2.53;;;1.55;;
42294;SDS011;27947;47.556;18.718;2023-06-04T02:30:31;3.97;;;1.60;;
42294;SDS011;27947;47.556;18.718;2023-06-04T02:32:57;5.45;;;1.40;;
42294;SDS011;27947;47.556;18.718;2023-06-04T02:35:26;2.80;;;1.20;;
42294;SDS011;27947;47.556;18.718;2023-06-04T02:37:51;2.88;;;1.50;;
42294;SDS011;27947;47.556;18.718;2023-06-04T02:40:17;5.03;;;1.38;;
42294;SDS011;27947;47.556;18.718;2023-06-04T02:42:42;3.00;;;1.60;;
42294;SDS011;27947;47.556;18.718;2023-06-04T02:45:08;5.32;;;1.27;;
42294;SDS011;27947;47.556;18.718;2023-06-04T02:47:33;3.08;;;1.40;;
42294;SDS011;27947;47.556;18.718;2023-06-04T02:49:59;3.63;;;1.30;;
42294;SDS011;27947;47.556;18.718;2023-06-04T02:52:24;4.28;;;1.42;;
42294;SDS011;27947;47.556;18.718;2023-06-04T02:54:50;3.97;;;1.25;;
42294;SDS011;27947;47.556;18.718;2023-06-04T02:57:16;3.83;;;1.50;;
42294;SDS011;27947;47.556;18.718;2023-06-04T02:59:41;3.10;;;1.67;;
42294;SDS011;27947;47.556;18.718;2023-06-04T03:02:06;3.20;;;1.50;;
42294;SDS011;27947;47.556;18.718;2023-06-04T03:04:32;5.53;;;1.65;;
42294;SDS011;27947;47.556;18.718;2023-06-04T03:07:02;2.78;;;1.20;;
42294;SDS011;27947;47.556;18.718;2023-06-04T03:09:28;7.10;;;1.40;;
42294;SDS011;27947;47.556;18.718;2023-06-04T03:11:53;2.45;;;1.30;;
42294;SDS011;27947;47.556;18.718;2023-06-04T03:14:18;4.22;;;1.27;;
42294;SDS011;27947;47.556;18.718;2023-06-04T03:16:44;3.90;;;1.27;;
42294;SDS011;27947;47.556;18.718;2023-06-04T03:19:10;3.22;;;1.55;;
42294;SDS011;27947;47.556;18.718;2023-06-04T03:21:36;3.42;;;1.45;;
42294;SDS011;27947;47.556;18.718;2023-06-04T03:24:05;3.88;;;1.20;;
42294;SDS011;27947;47.556;18.718;2023-06-04T03:26:31;3.20;;;1.50;;
42294;SDS011;27947;47.556;18.718;2023-06-04T03:28:56;5.38;;;1.75;;
42294;SDS011;27947;47.556;18.718;2023-06-04T03:31:21;4.13;;;1.42;;
42294;SDS011;27947;47.556;18.718;2023-06-04T03:33:47;4.80;;;1.50;;
42294;SDS011;27947;47.556;18.718;2023-06-04T03:36:13;4.65;;;1.23;;
42294;SDS011;27947;47.556;18.718;2023-06-04T03:38:39;1.88;;;1.10;;
42294;SDS011;27947;47.556;18.718;2023-06-04T03:41:04;2.65;;;1.23;;
42294;SDS011;27947;47.556;18.718;2023-06-04T03:43:29;2.35;;;1.25;;
42294;SDS011;27947;47.556;18.718;2023-06-04T03:45:59;4.72;;;1.25;;
42294;SDS011;27947;47.556;18.718;2023-06-04T03:48:25;3.08;;;1.42;;
42294;SDS011;27947;47.556;18.718;2023-06-04T03:50:51;3.40;;;1.00;;
42294;SDS011;27947;47.556;18.718;2023-06-04T03:53:16;2.95;;;1.27;;
42294;SDS011;27947;47.556;18.718;2023-06-04T03:55:42;2.30;;;1.35;;
42294;SDS011;27947;47.556;18.718;2023-06-04T03:58:08;1.90;;;1.00;;
42294;SDS011;27947;47.556;18.718;2023-06-04T04:00:36;8.15;;;1.20;;
42294;SDS011;27947;47.556;18.718;2023-06-04T04:03:02;3.85;;;1.20;;
42294;SDS011;27947;47.556;18.718;2023-06-04T04:05:29;5.32;;;1.48;;
42294;SDS011;27947;47.556;18.718;2023-06-04T04:07:54;4.28;;;1.35;;
42294;SDS011;27947;47.556;18.718;2023-06-04T04:10:24;4.28;;;1.50;;
42294;SDS011;27947;47.556;18.718;2023-06-04T04:12:49;3.67;;;1.30;;
42294;SDS011;27947;47.556;18.718;2023-06-04T04:15:18;1.73;;;1.17;;
42294;SDS011;27947;47.556;18.718;2023-06-04T04:17:44;5.00;;;1.75;;
42294;SDS011;27947;47.556;18.718;2023-06-04T04:20:09;2.00;;;1.20;;
42294;SDS011;27947;47.556;18.718;2023-06-04T04:22:41;4.18;;;1.40;;
42294;SDS011;27947;47.556;18.718;2023-06-04T04:25:08;2.83;;;1.20;;
42294;SDS011;27947;47.556;18.718;2023-06-04T04:27:34;2.25;;;1.20;;
42294;SDS011;27947;47.556;18.718;2023-06-04T04:30:04;5.10;;;1.50;;
42294;SDS011;27947;47.556;18.718;2023-06-04T04:32:30;4.18;;;1.40;;
42294;SDS011;27947;47.556;18.718;2023-06-04T04:34:57;2.70;;;1.30;;
42294;SDS011;27947;47.556;18.718;2023-06-04T04:37:30;1.77;;;1.20;;
42294;SDS011;27947;47.556;18.718;2023-06-04T04:39:56;2.78;;;1.40;;
42294;SDS011;27947;47.556;18.718;2023-06-04T04:42:24;3.05;;;1.48;;
42294;SDS011;27947;47.556;18.718;2023-06-04T04:44:50;3.75;;;1.60;;
42294;SDS011;27947;47.556;18.718;2023-06-04T04:47:17;3.58;;;1.25;;
42294;SDS011;27947;47.556;18.718;2023-06-04T04:49:43;4.53;;;1.30;;
42294;SDS011;27947;47.556;18.718;2023-06-04T04:52:08;2.75;;;1.50;;
42294;SDS011;27947;47.556;18.718;2023-06-04T04:54:36;3.67;;;1.23;;
42294;SDS011;27947;47.556;18.718;2023-06-04T04:57:02;3.33;;;1.50;;
42294;SDS011;27947;47.556;18.718;2023-06-04T04:59:27;4.45;;;1.45;;
42294;SDS011;27947;47.556;18.718;2023-06-04T05:01:54;3.60;;;1.63;;
42294;SDS011;27947;47.556;18.718;2023-06-04T05:04:19;4.22;;;1.50;;
42294;SDS011;27947;47.556;18.718;2023-06-04T05:06:45;4.53;;;1.35;;
42294;SDS011;27947;47.556;18.718;2023-06-04T05:09:11;5.30;;;1.40;;
42294;SDS011;27947;47.556;18.718;2023-06-04T05:11:37;2.28;;;1.40;;
42294;SDS011;27947;47.556;18.718;2023-06-04T05:14:03;3.00;;;1.17;;
42294;SDS011;27947;47.556;18.718;2023-06-04T05:16:28;2.38;;;1.30;;
42294;SDS011;27947;47.556;18.718;2023-06-04T05:18:55;5.65;;;1.25;;
42294;SDS011;27947;47.556;18.718;2023-06-04T05:21:24;4.20;;;1.13;;
42294;SDS011;27947;47.556;18.718;2023-06-04T05:23:55;2.38;;;1.50;;
42294;SDS011;27947;47.556;18.718;2023-06-04T05:26:23;3.78;;;1.42;;
42294;SDS011;27947;47.556;18.718;2023-06-04T05:28:55;4.72;;;1.33;;
42294;SDS011;27947;47.556;18.718;2023-06-04T05:31:21;5.60;;;1.58;;
42294;SDS011;27947;47.556;18.718;2023-06-04T05:33:47;3.35;;;1.45;;
42294;SDS011;27947;47.556;18.718;2023-06-04T05:36:15;4.50;;;1.50;;
42294;SDS011;27947;47.556;18.718;2023-06-04T05:38:48;5.82;;;1.48;;
42294;SDS011;27947;47.556;18.718;2023-06-04T05:41:15;2.55;;;1.35;;
42294;SDS011;27947;47.556;18.718;2023-06-04T05:43:41;3.17;;;1.48;;
42294;SDS011;27947;47.556;18.718;2023-06-04T05:46:10;4.00;;;1.75;;
42294;SDS011;27947;47.556;18.718;2023-06-04T05:48:36;3.75;;;1.70;;
42294;SDS011;27947;47.556;18.718;2023-06-04T05:51:02;5.45;;;1.42;;
42294;SDS011;27947;47.556;18.718;2023-06-04T05:53:27;3.08;;;1.50;;
42294;SDS011;27947;47.556;18.718;2023-06-04T05:55:53;3.20;;;1.45;;
42294;SDS011;27947;47.556;18.718;2023-06-04T05:58:18;6.22;;;1.45;;
42294;SDS011;27947;47.556;18.718;2023-06-04T06:00:44;4.72;;;1.40;;
42294;SDS011;27947;47.556;18.718;2023-06-04T06:03:10;2.30;;;1.40;;
42294;SDS011;27947;47.556;18.718;2023-06-04T06:05:41;5.10;;;1.25;;
42294;SDS011;27947;47.556;18.718;2023-06-04T06:08:07;5.93;;;1.20;;
42294;SDS011;27947;47.556;18.718;2023-06-04T06:10:32;2.30;;;1.50;;
42294;SDS011;27947;47.556;18.718;2023-06-04T06:12:57;3.47;;;1.58;;
42294;SDS011;27947;47.556;18.718;2023-06-04T06:15:23;4.63;;;1.60;;
42294;SDS011;27947;47.556;18.718;2023-06-04T06:17:49;2.97;;;1.35;;
42294;SDS011;27947;47.556;18.718;2023-06-04T06:20:14;3.38;;;1.20;;
42294;SDS011;27947;47.556;18.718;2023-06-04T06:22:43;3.78;;;1.30;;
42294;SDS011;27947;47.556;18.718;2023-06-04T06:25:09;6.78;;;1.40;;
42294;SDS011;27947;47.556;18.718;2023-06-04T06:27:39;3.47;;;1.50;;
42294;SDS011;27947;47.556;18.718;2023-06-04T06:30:06;5.57;;;1.40;;
42294;SDS011;27947;47.556;18.718;2023-06-04T06:32:32;5.15;;;1.40;;
42294;SDS011;27947;47.556;18.718;2023-06-04T06:34:57;3.22;;;1.20;;
42294;SDS011;27947;47.556;18.718;2023-06-04T06:37:22;5.80;;;1.50;;
42294;SDS011;27947;47.556;18.718;2023-06-04T06:39:48;3.28;;;1.40;;
42294;SDS011;27947;47.556;18.718;2023-06-04T06:42:13;7.90;;;1.50;;
42294;SDS011;27947;47.556;18.718;2023-06-04T06:44:43;3.75;;;1.42;;
42294;SDS011;27947;47.556;18.718;2023-06-04T06:47:09;4.93;;;1.35;;
42294;SDS011;27947;47.556;18.718;2023-06-04T06:49:35;4.88;;;1.50;;
42294;SDS011;27947;47.556;18.718;2023-06-04T06:52:00;6.50;;;1.40;;
42294;SDS011;27947;47.556;18.718;2023-06-04T06:54:26;4.68;;;1.50;;
42294;SDS011;27947;47.556;18.718;2023-06-04T06:56:51;2.63;;;1.30;;
42294;SDS011;27947;47.556;18.718;2023-06-04T06:59:17;8.15;;;1.30;;
42294;SDS011;27947;47.556;18.718;2023-06-04T07:01:42;3.15;;;1.30;;
42294;SDS011;27947;47.556;18.718;2023-06-04T07:04:07;2.97;;;1.50;;
42294;SDS011;27947;47.556;18.718;2023-06-04T07:06:33;6.00;;;1.58;;
42294;SDS011;27947;47.556;18.718;2023-06-04T07:08:59;10.45;;;1.83;;
42294;SDS011;27947;47.556;18.718;2023-06-04T07:11:24;3.65;;;1.38;;
42294;SDS011;27947;47.556;18.718;2023-06-04T07:13:50;4.68;;;1.38;;
42294;SDS011;27947;47.556;18.718;2023-06-04T07:16:16;3.38;;;1.55;;
42294;SDS011;27947;47.556;18.718;2023-06-04T07:18:41;5.10;;;1.90;;
42294;SDS011;27947;47.556;18.718;2023-06-04T07:21:07;5.53;;;1.73;;
42294;SDS011;27947;47.556;18.718;2023-06-04T07:23:32;7.00;;;1.13;;
42294;SDS011;27947;47.556;18.718;2023-06-04T07:25:57;9.45;;;1.63;;
42294;SDS011;27947;47.556;18.718;2023-06-04T07:28:23;4.40;;;1.60;;
42294;SDS011;27947;47.556;18.718;2023-06-04T07:30:48;6.20;;;1.20;;
42294;SDS011;27947;47.556;18.718;2023-06-04T07:33:14;7.40;;;1.65;;
42294;SDS011;27947;47.556;18.718;2023-06-04T07:35:39;4.00;;;1.50;;
42294;SDS011;27947;47.556;18.718;2023-06-04T07:38:04;7.53;;;1.63;;
42294;SDS011;27947;47.556;18.718;2023-06-04T07:40:30;11.23;;;1.70;;
42294;SDS011;27947;47.556;18.718;2023-06-04T07:42:55;3.85;;;1.60;;
42294;SDS011;27947;47.556;18.718;2023-06-04T07:45:21;3.60;;;1.40;;
42294;SDS011;27947;47.556;18.718;2023-06-04T07:47:46;4.53;;;1.40;;
42294;SDS011;27947;47.556;18.718;2023-06-04T07:50:11;2.88;;;1.27;;
42294;SDS011;27947;47.556;18.718;2023-06-04T07:52:37;4.57;;;1.20;;
42294;SDS011;27947;47.556;18.718;2023-06-04T07:55:02;3.90;;;1.25;;
42294;SDS011;27947;47.556;18.718;2023-06-04T07:57:28;2.55;;;1.35;;
42294;SDS011;27947;47.556;18.718;2023-06-04T07:59:54;4.78;;;1.45;;
42294;SDS011;27947;47.556;18.718;2023-06-04T08:02:20;3.63;;;1.45;;
42294;SDS011;27947;47.556;18.718;2023-06-04T08:04:46;3.00;;;1.30;;
42294;SDS011;27947;47.556;18.718;2023-06-04T08:07:12;5.28;;;1.70;;
42294;SDS011;27947;47.556;18.718;2023-06-04T08:09:38;2.47;;;1.40;;
42294;SDS011;27947;47.556;18.718;2023-06-04T08:12:03;3.20;;;1.45;;
42294;SDS011;27947;47.556;18.718;2023-06-04T08:14:28;4.25;;;1.33;;
42294;SDS011;27947;47.556;18.718;2023-06-04T08:16:54;6.78;;;1.60;;
42294;SDS011;27947;47.556;18.718;2023-06-04T08:19:19;5.43;;;1.50;;
42294;SDS011;27947;47.556;18.718;2023-06-04T08:21:45;3.60;;;1.50;;
42294;SDS011;27947;47.556;18.718;2023-06-04T08:24:10;7.10;;;1.65;;
42294;SDS011;27947;47.556;18.718;2023-06-04T08:26:36;7.25;;;1.70;;
42294;SDS011;27947;47.556;18.718;2023-06-04T08:29:02;3.40;;;1.30;;
42294;SDS011;27947;47.556;18.718;2023-06-04T08:31:28;4.75;;;1.65;;
42294;SDS011;27947;47.556;18.718;2023-06-04T08:33:53;7.07;;;1.48;;
42294;SDS011;27947;47.556;18.718;2023-06-04T08:36:18;5.65;;;1.60;;
42294;SDS011;27947;47.556;18.718;2023-06-04T08:38:44;5.43;;;1.60;;
42294;SDS011;27947;47.556;18.718;2023-06-04T08:43:37;3.05;;;1.70;;
42294;SDS011;27947;47.556;18.718;2023-06-04T08:46:04;4.20;;;1.65;;
42294;SDS011;27947;47.556;18.718;2023-06-04T08:48:33;3.33;;;1.70;;
42294;SDS011;27947;47.556;18.718;2023-06-04T08:50:59;5.15;;;1.45;;
42294;SDS011;27947;47.556;18.718;2023-06-04T08:53:25;8.18;;;1.92;;
42294;SDS011;27947;47.556;18.718;2023-06-04T08:55:50;4.30;;;1.83;;
42294;SDS011;27947;47.556;18.718;2023-06-04T08:58:15;4.03;;;1.65;;
42294;SDS011;27947;47.556;18.718;2023-06-04T09:00:41;3.53;;;1.77;;
42294;SDS011;27947;47.556;18.718;2023-06-04T09:03:07;5.70;;;1.77;;
42294;SDS011;27947;47.556;18.718;2023-06-04T09:05:32;4.45;;;1.80;;
42294;SDS011;27947;47.556;18.718;2023-06-04T09:08:00;4.90;;;2.00;;
42294;SDS011;27947;47.556;18.718;2023-06-04T09:10:25;9.65;;;1.73;;
42294;SDS011;27947;47.556;18.718;2023-06-04T09:12:51;4.60;;;1.58;;
42294;SDS011;27947;47.556;18.718;2023-06-04T09:15:17;7.53;;;1.50;;
42294;SDS011;27947;47.556;18.718;2023-06-04T09:17:43;4.05;;;1.90;;
42294;SDS011;27947;47.556;18.718;2023-06-04T09:20:17;2.92;;;1.40;;
42294;SDS011;27947;47.556;18.718;2023-06-04T09:22:43;8.98;;;1.60;;
42294;SDS011;27947;47.556;18.718;2023-06-04T09:25:18;2.92;;;1.40;;
42294;SDS011;27947;47.556;18.718;2023-06-04T09:27:44;5.35;;;1.90;;
42294;SDS011;27947;47.556;18.718;2023-06-04T09:30:09;8.55;;;1.48;;
42294;SDS011;27947;47.556;18.718;2023-06-04T09:32:35;3.13;;;1.23;;
42294;SDS011;27947;47.556;18.718;2023-06-04T09:35:17;4.18;;;1.60;;
42294;SDS011;27947;47.556;18.718;2023-06-04T09:40:08;2.97;;;1.70;;
42294;SDS011;27947;47.556;18.718;2023-06-04T09:42:44;4.90;;;1.65;;
42294;SDS011;27947;47.556;18.718;2023-06-04T09:45:09;5.75;;;1.80;;
42294;SDS011;27947;47.556;18.718;2023-06-04T09:47:39;6.95;;;1.63;;
42294;SDS011;27947;47.556;18.718;2023-06-04T09:50:04;3.88;;;1.48;;
42294;SDS011;27947;47.556;18.718;2023-06-04T09:52:33;4.18;;;1.52;;
42294;SDS011;27947;47.556;18.718;2023-06-04T09:54:59;3.90;;;1.83;;
42294;SDS011;27947;47.556;18.718;2023-06-04T09:57:25;2.60;;;1.30;;
42294;SDS011;27947;47.556;18.718;2023-06-04T09:59:53;4.18;;;1.50;;
42294;SDS011;27947;47.556;18.718;2023-06-04T10:02:20;7.45;;;1.80;;
42294;SDS011;27947;47.556;18.718;2023-06-04T10:04:48;5.32;;;1.50;;
42294;SDS011;27947;47.556;18.718;2023-06-04T10:07:14;3.63;;;1.48;;
42294;SDS011;27947;47.556;18.718;2023-06-04T10:09:41;17.77;;;2.15;;
42294;SDS011;27947;47.556;18.718;2023-06-04T10:12:10;5.10;;;1.73;;
42294;SDS011;27947;47.556;18.718;2023-06-04T10:14:40;8.43;;;1.38;;
42294;SDS011;27947;47.556;18.718;2023-06-04T10:17:06;6.90;;;1.38;;
42294;SDS011;27947;47.556;18.718;2023-06-04T10:19:33;4.05;;;1.40;;
42294;SDS011;27947;47.556;18.718;2023-06-04T10:22:00;5.63;;;2.30;;
42294;SDS011;27947;47.556;18.718;2023-06-04T10:24:26;5.60;;;1.70;;
42294;SDS011;27947;47.556;18.718;2023-06-04T10:26:51;11.45;;;3.42;;
42294;SDS011;27947;47.556;18.718;2023-06-04T10:29:18;6.15;;;3.30;;
42294;SDS011;27947;47.556;18.718;2023-06-04T10:31:43;27.25;;;16.25;;
42294;SDS011;27947;47.556;18.718;2023-06-04T10:34:10;17.67;;;7.65;;
42294;SDS011;27947;47.556;18.718;2023-06-04T10:36:42;19.15;;;9.75;;
42294;SDS011;27947;47.556;18.718;2023-06-04T10:39:08;23.35;;;14.10;;
42294;SDS011;27947;47.556;18.718;2023-06-04T10:41:33;21.83;;;13.30;;
42294;SDS011;27947;47.556;18.718;2023-06-04T10:44:00;16.77;;;10.75;;
42294;SDS011;27947;47.556;18.718;2023-06-04T10:46:26;15.90;;;9.95;;
42294;SDS011;27947;47.556;18.718;2023-06-04T10:49:01;16.25;;;9.10;;
42294;SDS011;27947;47.556;18.718;2023-06-04T10:51:34;15.70;;;7.32;;
42294;SDS011;27947;47.556;18.718;2023-06-04T10:54:00;10.85;;;6.78;;
42294;SDS011;27947;47.556;18.718;2023-06-04T10:56:26;9.20;;;5.93;;
42294;SDS011;27947;47.556;18.718;2023-06-04T10:58:52;8.38;;;3.83;;
42294;SDS011;27947;47.556;18.718;2023-06-04T11:01:27;5.40;;;3.35;;
42294;SDS011;27947;47.556;18.718;2023-06-04T11:03:53;6.70;;;1.95;;
42294;SDS011;27947;47.556;18.718;2023-06-04T11:06:19;2.65;;;1.42;;
42294;SDS011;27947;47.556;18.718;2023-06-04T11:08:45;8.73;;;2.05;;
42294;SDS011;27947;47.556;18.718;2023-06-04T11:11:11;5.43;;;1.70;;
42294;SDS011;27947;47.556;18.718;2023-06-04T11:13:37;3.78;;;1.50;;
42294;SDS011;27947;47.556;18.718;2023-06-04T11:16:02;6.00;;;2.70;;
42294;SDS011;27947;47.556;18.718;2023-06-04T11:18:39;6.10;;;2.40;;
42294;SDS011;27947;47.556;18.718;2023-06-04T11:21:04;12.65;;;5.07;;
42294;SDS011;27947;47.556;18.718;2023-06-04T11:23:30;17.10;;;5.85;;
42294;SDS011;27947;47.556;18.718;2023-06-04T11:25:55;28.70;;;20.65;;
42294;SDS011;27947;47.556;18.718;2023-06-04T11:28:21;6.75;;;3.78;;
42294;SDS011;27947;47.556;18.718;2023-06-04T11:30:59;7.20;;;2.10;;
42294;SDS011;27947;47.556;18.718;2023-06-04T11:33:27;7.95;;;3.00;;
42294;SDS011;27947;47.556;18.718;2023-06-04T11:35:52;6.45;;;2.15;;
42294;SDS011;27947;47.556;18.718;2023-06-04T11:38:18;6.88;;;2.83;;
42294;SDS011;27947;47.556;18.718;2023-06-04T11:40:43;6.30;;;2.75;;
42294;SDS011;27947;47.556;18.718;2023-06-04T11:43:10;8.82;;;3.75;;
42294;SDS011;27947;47.556;18.718;2023-06-04T11:45:36;44.03;;;26.55;;
42294;SDS011;27947;47.556;18.718;2023-06-04T11:48:01;23.23;;;13.60;;
42294;SDS011;27947;47.556;18.718;2023-06-04T11:50:29;23.90;;;13.63;;
42294;SDS011;27947;47.556;18.718;2023-06-04T11:52:54;34.80;;;22.48;;
42294;SDS011;27947;47.556;18.718;2023-06-04T11:55:20;23.48;;;15.98;;
42294;SDS011;27947;47.556;18.718;2023-06-04T11:57:46;28.40;;;17.77;;
42294;SDS011;27947;47.556;18.718;2023-06-04T12:00:11;23.33;;;13.10;;
42294;SDS011;27947;47.556;18.718;2023-06-04T12:02:38;18.15;;;8.63;;
42294;SDS011;27947;47.556;18.718;2023-06-04T12:05:10;17.70;;;10.82;;
42294;SDS011;27947;47.556;18.718;2023-06-04T12:07:35;19.42;;;9.25;;
42294;SDS011;27947;47.556;18.718;2023-06-04T12:10:07;14.00;;;2.80;;
42294;SDS011;27947;47.556;18.718;2023-06-04T12:12:34;7.60;;;4.22;;
42294;SDS011;27947;47.556;18.718;2023-06-04T12:15:00;6.95;;;3.38;;
42294;SDS011;27947;47.556;18.718;2023-06-04T12:17:25;4.47;;;2.22;;
42294;SDS011;27947;47.556;18.718;2023-06-04T12:19:51;16.02;;;2.95;;
42294;SDS011;27947;47.556;18.718;2023-06-04T12:22:16;5.78;;;1.67;;
42294;SDS011;27947;47.556;18.718;2023-06-04T12:24:52;7.30;;;1.73;;
42294;SDS011;27947;47.556;18.718;2023-06-04T12:27:18;3.83;;;1.30;;
42294;SDS011;27947;47.556;18.718;2023-06-04T12:29:53;2.80;;;1.58;;
42294;SDS011;27947;47.556;18.718;2023-06-04T12:32:19;5.13;;;2.05;;
42294;SDS011;27947;47.556;18.718;2023-06-04T12:34:44;4.22;;;1.60;;
42294;SDS011;27947;47.556;18.718;2023-06-04T12:37:09;3.67;;;1.90;;
42294;SDS011;27947;47.556;18.718;2023-06-04T12:39:35;7.32;;;2.15;;
42294;SDS011;27947;47.556;18.718;2023-06-04T12:42:05;5.40;;;2.03;;
42294;SDS011;27947;47.556;18.718;2023-06-04T12:44:30;11.27;;;1.80;;
42294;SDS011;27947;47.556;18.718;2023-06-04T12:46:56;7.13;;;2.03;;
42294;SDS011;27947;47.556;18.718;2023-06-04T12:49:21;2.58;;;1.77;;
42294;SDS011;27947;47.556;18.718;2023-06-04T12:51:47;5.10;;;1.58;;
42294;SDS011;27947;47.556;18.718;2023-06-04T12:54:12;2.03;;;1.60;;
42294;SDS011;27947;47.556;18.718;2023-06-04T12:56:38;3.60;;;1.83;;
42294;SDS011;27947;47.556;18.718;2023-06-04T12:59:05;4.00;;;1.80;;
42294;SDS011;27947;47.556;18.718;2023-06-04T13:01:30;3.67;;;1.58;;
42294;SDS011;27947;47.556;18.718;2023-06-04T13:03:56;4.82;;;1.85;;
42294;SDS011;27947;47.556;18.718;2023-06-04T13:06:21;6.03;;;1.60;;
42294;SDS011;27947;47.556;18.718;2023-06-04T13:08:46;4.20;;;1.95;;
42294;SDS011;27947;47.556;18.718;2023-06-04T13:11:12;4.25;;;1.80;;
42294;SDS011;27947;47.556;18.718;2023-06-04T13:13:38;3.20;;;1.98;;
42294;SDS011;27947;47.556;18.718;2023-06-04T13:16:03;5.80;;;1.80;;
42294;SDS011;27947;47.556;18.718;2023-06-04T13:18:29;3.88;;;1.80;;
42294;SDS011;27947;47.556;18.718;2023-06-04T13:20:54;3.65;;;2.08;;
42294;SDS011;27947;47.556;18.718;2023-06-04T13:23:20;3.00;;;1.80;;
42294;SDS011;27947;47.556;18.718;2023-06-04T13:25:45;5.00;;;1.80;;
42294;SDS011;27947;47.556;18.718;2023-06-04T13:28:11;3.47;;;1.90;;
42294;SDS011;27947;47.556;18.718;2023-06-04T13:30:36;4.50;;;2.13;;
42294;SDS011;27947;47.556;18.718;2023-06-04T13:33:02;2.35;;;1.65;;
42294;SDS011;27947;47.556;18.718;2023-06-04T13:35:28;3.72;;;1.75;;
42294;SDS011;27947;47.556;18.718;2023-06-04T13:37:53;4.60;;;1.98;;
42294;SDS011;27947;47.556;18.718;2023-06-04T13:40:18;4.57;;;1.85;;
42294;SDS011;27947;47.556;18.718;2023-06-04T13:42:44;7.28;;;1.90;;
42294;SDS011;27947;47.556;18.718;2023-06-04T13:45:10;4.65;;;1.98;;
42294;SDS011;27947;47.556;18.718;2023-06-04T13:47:35;2.92;;;1.75;;
42294;SDS011;27947;47.556;18.718;2023-06-04T13:50:01;3.97;;;2.00;;
42294;SDS011;27947;47.556;18.718;2023-06-04T13:52:26;6.00;;;1.85;;
42294;SDS011;27947;47.556;18.718;2023-06-04T13:54:53;8.00;;;2.08;;
42294;SDS011;27947;47.556;18.718;2023-06-04T13:57:19;4.07;;;1.80;;
42294;SDS011;27947;47.556;18.718;2023-06-04T13:59:44;5.07;;;1.63;;
42294;SDS011;27947;47.556;18.718;2023-06-04T14:02:10;4.30;;;2.00;;
42294;SDS011;27947;47.556;18.718;2023-06-04T14:04:35;5.60;;;1.60;;
42294;SDS011;27947;47.556;18.718;2023-06-04T14:07:00;3.78;;;1.90;;
42294;SDS011;27947;47.556;18.718;2023-06-04T14:09:26;3.10;;;2.13;;
42294;SDS011;27947;47.556;18.718;2023-06-04T14:11:51;4.82;;;2.03;;
42294;SDS011;27947;47.556;18.718;2023-06-04T14:14:17;3.00;;;1.70;;
42294;SDS011;27947;47.556;18.718;2023-06-04T14:16:46;6.45;;;2.20;;
42294;SDS011;27947;47.556;18.718;2023-06-04T14:19:12;3.30;;;2.42;;
42294;SDS011;27947;47.556;18.718;2023-06-04T14:21:37;4.30;;;2.20;;
42294;SDS011;27947;47.556;18.718;2023-06-04T14:24:03;3.05;;;2.15;;
42294;SDS011;27947;47.556;18.718;2023-06-04T14:26:28;4.45;;;2.70;;
42294;SDS011;27947;47.556;18.718;2023-06-04T14:28:54;4.75;;;2.20;;
42294;SDS011;27947;47.556;18.718;2023-06-04T14:31:20;5.28;;;2.08;;
42294;SDS011;27947;47.556;18.718;2023-06-04T14:33:45;3.78;;;2.28;;
42294;SDS011;27947;47.556;18.718;2023-06-04T14:36:10;7.10;;;2.35;;
42294;SDS011;27947;47.556;18.718;2023-06-04T14:38:36;6.55;;;2.05;;
42294;SDS011;27947;47.556;18.718;2023-06-04T14:41:02;5.80;;;2.10;;